KPIH/PIH METAR and TAF weather

Enter ICAO airport designator
Station Type Date Time Source
KPIH METAR 2022/05/23 13:53 UTC NOAA

KPIH 231353Z 28004KT 10SM CLR 04/01 A3019 RMK AO2 SLP225 T00390006


Station Type Date Time Source
KPIH Decoded METAR 2022/05/23 13:53 UTC NOAA

POCATELLO REGIONAL AIRPORT, ID, United States (KPIH) 42-55N 112-36W 1359M
May 23, 2022 - 09:53 AM EDT / 2022.05.23 1353 UTC
Wind: from the W (280 degrees) at 5 MPH (4 KT):0
Visibility: 10 mile(s):0
Sky conditions: clear
Temperature: 39.0 F (3.9 C)
Dew Point: 33.1 F (0.6 C)
Relative Humidity: 79%
Pressure (altimeter): 30.19 in. Hg (1022 hPa)
ob: KPIH 231353Z 28004KT 10SM CLR 04/01 A3019 RMK AO2 SLP225 T00390006
cycle: 14

Station Type Date Time Source
KPIH TAF 2022/05/23 12:33 UTC NOAA

TAF KPIH 231130Z 2312/2412 VRB05KT P6SM SKC
FM231700 27008KT P6SM SCT200
FM240300 22008KT P6SM BKN150

Example: see airport list